createdAt,value
2023-03-02T00:02:02.616Z,99296.16
2023-03-02T00:04:49.260Z,99298.59
2023-03-02T00:07:25.340Z,99299.59
2023-03-02T00:09:55.713Z,99299.66
2023-03-02T00:12:25.108Z,99301.34
2023-03-02T00:14:53.813Z,99299.63
2023-03-02T00:17:28.805Z,99292.63
2023-03-02T00:20:13.860Z,99282.16
2023-03-02T00:22:45.306Z,99290.78
2023-03-02T00:25:15.912Z,99289.97
2023-03-02T00:27:45.849Z,99291.78
2023-03-02T00:30:15.772Z,99291.66
2023-03-02T00:32:45.274Z,99294.41
2023-03-02T00:35:14.295Z,99290.91
2023-03-02T00:37:43.577Z,99296.06
2023-03-02T00:40:13.346Z,99306.75
2023-03-02T00:42:42.459Z,99303.22
2023-03-02T00:45:11.780Z,99305.78
2023-03-02T00:47:42.233Z,99315.34
2023-03-02T00:50:12.212Z,99311.94
2023-03-02T00:52:41.100Z,99314.72
2023-03-02T00:55:10.490Z,99311.50
2023-03-02T00:57:40.135Z,99314.81
2023-03-02T01:00:13.836Z,99321.59
2023-03-02T01:02:46.201Z,99334.56
2023-03-02T01:05:21.174Z,99334.44
2023-03-02T01:07:50.820Z,99335.41
2023-03-02T01:10:20.136Z,99338.06
2023-03-02T01:12:49.780Z,99341.53
2023-03-02T01:15:19.143Z,99345.00
2023-03-02T01:17:48.545Z,99338.97
2023-03-02T01:20:19.317Z,99339.78
2023-03-02T01:22:49.309Z,99343.34
2023-03-02T01:25:18.689Z,99356.31
2023-03-02T01:27:48.814Z,99351.13
2023-03-02T01:30:18.325Z,99361.56
2023-03-02T01:32:47.683Z,99360.81
2023-03-02T01:35:19.853Z,99383.31
2023-03-02T01:37:49.495Z,99370.34
2023-03-02T01:40:18.843Z,99381.69
2023-03-02T01:42:58.523Z,99379.78
2023-03-02T01:46:12.610Z,99378.59
2023-03-02T01:48:50.455Z,99375.28
2023-03-02T01:51:29.316Z,99381.38
2023-03-02T01:54:07.668Z,99386.50
2023-03-02T01:56:41.295Z,99388.25
2023-03-02T01:59:15.827Z,99390.84
2023-03-02T02:01:51.657Z,99390.84
2023-03-02T02:04:23.147Z,99395.06
2023-03-02T02:06:56.588Z,99393.34
2023-03-02T02:09:28.002Z,99395.06
2023-03-02T02:11:58.186Z,99397.72
2023-03-02T02:14:27.966Z,99396.78
2023-03-02T02:16:57.929Z,99395.06
2023-03-02T02:19:41.964Z,99406.03
2023-03-02T02:22:12.755Z,99398.47
2023-03-02T02:24:53.359Z,99388.72
2023-03-02T02:27:23.286Z,99402.66
2023-03-02T02:29:54.241Z,99403.41
2023-03-02T02:32:31.814Z,99414.53
2023-03-02T02:35:06.935Z,99406.84
2023-03-02T02:37:56.863Z,99410.88
2023-03-02T02:40:45.873Z,99416.75
2023-03-02T02:43:21.149Z,99422.03
2023-03-02T02:45:56.925Z,99425.31
2023-03-02T02:48:32.152Z,99428.88
2023-03-02T02:51:04.277Z,99431.59
2023-03-02T02:53:51.589Z,99426.56
2023-03-02T02:56:21.115Z,99433.00
2023-03-02T02:58:55.157Z,99425.09
2023-03-02T03:01:27.273Z,99426.25
2023-03-02T03:04:02.026Z,99438.25
2023-03-02T03:06:43.141Z,99437.59
2023-03-02T03:09:14.346Z,99443.13
2023-03-02T03:11:55.037Z,99444.69
2023-03-02T03:14:42.096Z,99440.47
2023-03-02T03:17:15.474Z,99436.53
2023-03-02T03:19:53.461Z,99444.63
2023-03-02T03:22:22.501Z,99447.56
2023-03-02T03:24:52.248Z,99439.97
2023-03-02T03:27:21.414Z,99449.44
2023-03-02T03:29:50.540Z,99456.22
2023-03-02T03:32:22.230Z,99455.91
2023-03-02T03:34:54.468Z,99458.66
2023-03-02T03:37:28.491Z,99467.25
2023-03-02T03:39:57.785Z,99466.06
2023-03-02T03:42:26.729Z,99462.09
2023-03-02T03:44:57.267Z,99461.47
2023-03-02T03:47:26.534Z,99456.03
2023-03-02T03:49:55.251Z,99458.19
2023-03-02T03:52:31.365Z,99460.34
2023-03-02T03:55:13.425Z,99465.44
2023-03-02T03:57:44.021Z,99463.06
2023-03-02T04:00:18.110Z,99466.88
2023-03-02T04:03:05.161Z,99468.28
2023-03-02T04:05:35.208Z,99462.84
2023-03-02T04:08:05.322Z,99464.25
2023-03-02T04:10:35.723Z,99463.31
2023-03-02T04:13:05.139Z,99475.78
2023-03-02T04:15:34.763Z,99470.81
2023-03-02T04:18:04.118Z,99469.72
2023-03-02T04:20:34.125Z,99473.47
2023-03-02T04:23:03.226Z,99462.97
2023-03-02T04:25:32.506Z,99471.09
2023-03-02T04:28:21.920Z,99462.75
2023-03-02T04:30:52.520Z,99460.78
2023-03-02T04:33:21.436Z,99456.75
2023-03-02T04:35:50.377Z,99458.81
2023-03-02T04:38:19.567Z,99449.25
2023-03-02T04:40:48.599Z,99450.56
2023-03-02T04:43:17.698Z,99439.81
2023-03-02T04:45:46.506Z,99444.41
2023-03-02T04:48:15.513Z,99452.34
2023-03-02T04:50:44.390Z,99451.88
2023-03-02T04:53:13.304Z,99458.59
2023-03-02T04:55:42.295Z,99449.78
2023-03-02T04:58:11.278Z,99453.78
2023-03-02T05:00:40.477Z,99456.59
2023-03-02T05:03:09.550Z,99451.22
2023-03-02T05:05:38.509Z,99452.97
2023-03-02T05:08:07.435Z,99463.09
2023-03-02T05:10:36.156Z,99456.63
2023-03-02T05:13:06.751Z,99455.94
2023-03-02T05:15:38.348Z,99458.03
2023-03-02T05:18:09.875Z,99461.31
2023-03-02T05:20:39.223Z,99455.63
2023-03-02T05:23:10.974Z,99445.13
2023-03-02T05:25:40.104Z,99452.06
2023-03-02T05:28:08.839Z,99452.53
2023-03-02T05:30:38.571Z,99454.88
2023-03-02T05:33:07.568Z,99451.94
2023-03-02T05:35:36.889Z,99451.50
2023-03-02T05:38:06.396Z,99460.91
2023-03-02T05:40:35.309Z,99469.16
2023-03-02T05:43:04.551Z,99463.56
2023-03-02T05:45:37.046Z,99463.44
2023-03-02T05:48:07.651Z,99456.50
2023-03-02T05:50:36.696Z,99457.56
2023-03-02T05:53:05.905Z,99451.16
2023-03-02T05:55:38.050Z,99447.19
2023-03-02T05:58:20.985Z,99441.97
2023-03-02T06:00:50.347Z,99441.50
2023-03-02T06:03:19.712Z,99439.75
2023-03-02T06:05:53.254Z,99438.09
2023-03-02T06:08:23.021Z,99434.00
2023-03-02T06:10:51.857Z,99434.63
2023-03-02T06:13:21.128Z,99432.47
2023-03-02T06:15:49.757Z,99421.50
2023-03-02T06:18:18.825Z,99429.69
2023-03-02T06:20:47.696Z,99431.25
2023-03-02T06:23:17.837Z,99431.13
2023-03-02T06:25:49.653Z,99425.09
2023-03-02T06:28:20.870Z,99418.06
2023-03-02T06:30:50.913Z,99424.63
2023-03-02T06:33:22.137Z,99421.63
2023-03-02T06:35:51.456Z,99421.19
2023-03-02T06:38:20.336Z,99428.88
2023-03-02T06:40:49.316Z,99424.06
2023-03-02T06:43:19.919Z,99423.94
2023-03-02T06:45:49.067Z,99416.38
2023-03-02T06:48:18.318Z,99405.63
2023-03-02T06:50:47.538Z,99399.03
2023-03-02T06:53:18.623Z,99392.34
2023-03-02T06:55:49.231Z,99396.78
2023-03-02T06:58:18.331Z,99385.75
2023-03-02T07:00:47.102Z,99384.22
2023-03-02T07:03:16.095Z,99388.47
2023-03-02T07:05:46.321Z,99376.81
2023-03-02T07:08:15.598Z,99367.28
2023-03-02T07:10:44.450Z,99369.56
2023-03-02T07:13:14.148Z,99378.69
2023-03-02T07:21:42.614Z,99375.22
2023-03-02T07:24:11.582Z,99361.19
2023-03-02T07:26:40.281Z,99361.03
2023-03-02T07:29:09.247Z,99362.69
2023-03-02T07:31:37.888Z,99352.19
2023-03-02T07:34:06.743Z,99348.81
2023-03-02T07:36:35.636Z,99346.72
2023-03-02T07:39:05.466Z,99344.16
2023-03-02T07:41:34.419Z,99338.19
2023-03-02T07:44:03.423Z,99339.59
2023-03-02T07:46:32.090Z,99339.69
2023-03-02T07:49:01.250Z,99336.97
2023-03-02T07:51:30.438Z,99338.03
2023-03-02T07:53:59.882Z,99327.94
2023-03-02T07:56:28.601Z,99314.41
2023-03-02T07:58:57.560Z,99316.25
2023-03-02T08:01:26.425Z,99309.06
2023-03-02T08:03:55.374Z,99297.47
2023-03-02T08:06:24.534Z,99293.84
2023-03-02T08:08:53.544Z,99288.84
2023-03-02T08:11:22.273Z,99283.47
2023-03-02T08:13:51.347Z,99271.38
2023-03-02T08:16:20.106Z,99281.63
2023-03-02T08:18:49.442Z,99288.72
2023-03-02T08:21:22.248Z,99287.53
2023-03-02T08:23:51.580Z,99287.34
2023-03-02T08:26:21.877Z,99290.56
2023-03-02T08:28:50.906Z,99287.84
2023-03-02T08:31:19.650Z,99282.69
2023-03-02T08:33:48.611Z,99278.03
2023-03-02T08:36:20.213Z,99277.47
2023-03-02T08:38:49.800Z,99267.50
2023-03-02T08:41:22.134Z,99257.47
2023-03-02T08:43:51.224Z,99257.19
2023-03-02T08:46:22.394Z,99250.09
2023-03-02T08:48:54.818Z,99251.53
2023-03-02T08:51:24.774Z,99242.72
2023-03-02T08:53:58.254Z,99240.78
2023-03-02T08:56:30.458Z,99231.19
2023-03-02T08:59:05.101Z,99233.28
2023-03-02T09:01:37.446Z,99227.00
2023-03-02T09:04:08.693Z,99223.09
2023-03-02T09:06:43.451Z,99227.97
2023-03-02T09:09:14.733Z,99215.09
2023-03-02T09:11:44.400Z,99222.38
2023-03-02T09:14:13.176Z,99222.22
2023-03-02T09:16:42.382Z,99220.13
2023-03-02T09:19:13.236Z,99218.16
2023-03-02T09:21:42.319Z,99210.38
2023-03-02T09:24:11.244Z,99201.28
2023-03-02T09:26:43.963Z,99203.91
2023-03-02T09:29:12.874Z,99197.31
2023-03-02T09:31:41.519Z,99202.13
2023-03-02T09:34:10.560Z,99195.31
2023-03-02T09:36:40.100Z,99186.97
2023-03-02T09:48:30.218Z,99199.03
2023-03-02T09:51:24.702Z,99194.78
2023-03-02T09:54:18.494Z,99198.88
2023-03-02T09:56:53.558Z,99188.38
2023-03-02T09:59:25.952Z,99194.22
2023-03-02T10:01:58.652Z,99191.47
2023-03-02T10:04:39.666Z,99186.66
2023-03-02T10:07:16.935Z,99185.38
2023-03-02T10:09:46.161Z,99186.78
2023-03-02T10:12:37.186Z,99180.13
2023-03-02T10:15:15.684Z,99175.66
2023-03-02T10:17:55.149Z,99174.91
2023-03-02T10:20:52.986Z,99176.63
2023-03-02T10:23:50.701Z,99168.06
2023-03-02T10:26:32.901Z,99167.97
2023-03-02T10:29:35.766Z,99171.50
2023-03-02T10:32:30.998Z,99166.69
2023-03-02T10:35:03.357Z,99163.31
2023-03-02T10:37:32.877Z,99156.81
2023-03-02T10:40:01.641Z,99153.78
2023-03-02T10:42:35.515Z,99159.19
2023-03-02T10:45:31.888Z,99153.19
2023-03-02T10:48:10.264Z,99156.22
2023-03-02T10:50:39.948Z,99141.78
2023-03-02T11:44:22.728Z,99149.50
2023-03-02T11:49:48.271Z,99163.47
2023-03-02T11:52:29.139Z,99175.72
2023-03-02T11:55:21.220Z,99164.97
2023-03-02T11:58:09.227Z,99178.84
2023-03-02T12:00:42.876Z,99178.25
2023-03-02T12:03:17.378Z,99170.16
2023-03-02T12:05:55.264Z,99167.91
2023-03-02T12:08:24.123Z,99184.19
2023-03-02T12:11:20.187Z,99185.81
2023-03-02T12:16:43.352Z,99188.41
2023-03-02T12:19:18.573Z,99191.28
2023-03-02T12:22:03.194Z,99190.50
2023-03-02T12:24:35.748Z,99199.06
2023-03-02T12:27:15.553Z,99205.69
2023-03-02T12:29:52.260Z,99199.91
2023-03-02T12:32:21.204Z,99196.22
2023-03-02T12:35:13.526Z,99209.50
2023-03-02T12:37:48.268Z,99214.97
2023-03-02T12:40:29.225Z,99219.34
2023-03-02T12:43:19.658Z,99219.78
2023-03-02T12:46:09.917Z,99235.88
2023-03-02T12:49:06.253Z,99225.53
2023-03-02T12:51:58.922Z,99239.06
2023-03-02T12:54:31.455Z,99241.03
2023-03-02T12:57:09.543Z,99242.88
2023-03-02T12:59:38.705Z,99248.13
2023-03-02T13:02:19.337Z,99249.94
2023-03-02T13:04:56.483Z,99254.16
2023-03-02T13:07:36.384Z,99254.81
2023-03-02T13:10:21.349Z,99251.78
2023-03-02T13:12:50.308Z,99260.66
2023-03-02T13:15:19.613Z,99256.38
2023-03-02T13:17:57.311Z,99261.22
2023-03-02T13:20:31.117Z,99260.94
2023-03-02T13:23:00.407Z,99266.09
2023-03-02T13:25:32.031Z,99269.28
2023-03-02T13:28:08.429Z,99269.69
2023-03-02T13:30:42.631Z,99271.03
2023-03-02T13:33:24.394Z,99272.66
2023-03-02T13:35:53.540Z,99275.00
2023-03-02T13:38:26.834Z,99264.91
2023-03-02T13:40:57.322Z,99268.88
2023-03-02T13:43:35.805Z,99272.13
2023-03-02T13:46:08.144Z,99273.72
2023-03-02T13:48:37.186Z,99280.16
2023-03-02T13:51:17.831Z,99281.22
2023-03-02T13:53:54.688Z,99278.94
2023-03-02T13:56:29.503Z,99278.38
2023-03-02T13:58:59.081Z,99287.22
2023-03-02T14:01:29.204Z,99283.84
2023-03-02T14:03:58.334Z,99287.66
2023-03-02T14:06:27.323Z,99288.19
2023-03-02T14:08:56.096Z,99285.91
2023-03-02T14:11:24.918Z,99293.84
2023-03-02T14:13:56.292Z,99292.81
2023-03-02T14:16:25.356Z,99298.53
2023-03-02T14:18:54.314Z,99295.34
2023-03-02T14:21:27.743Z,99299.03
2023-03-02T14:23:56.872Z,99300.25
2023-03-02T14:26:45.281Z,99301.00
2023-03-02T14:29:14.909Z,99303.84
2023-03-02T14:31:43.811Z,99310.41
2023-03-02T14:34:17.314Z,99311.06
2023-03-02T14:36:49.239Z,99316.50
2023-03-02T14:39:48.153Z,99315.19
2023-03-02T14:42:20.169Z,99316.00
2023-03-02T14:44:51.231Z,99316.09
2023-03-02T14:47:20.474Z,99319.16
2023-03-02T14:49:50.396Z,99319.13
2023-03-02T14:52:28.658Z,99312.66
2023-03-02T14:55:01.778Z,99315.50
2023-03-02T14:57:36.528Z,99326.06
2023-03-02T15:00:07.008Z,99324.75
2023-03-02T15:02:36.386Z,99330.22
2023-03-02T15:05:05.550Z,99324.06
2023-03-02T15:07:34.479Z,99331.88
2023-03-02T15:10:03.147Z,99332.34
2023-03-02T15:12:32.364Z,99337.84
2023-03-02T15:15:01.315Z,99345.25
2023-03-02T15:17:30.269Z,99341.81
2023-03-02T15:19:59.022Z,99356.09
2023-03-02T15:22:28.326Z,99351.84
2023-03-02T15:24:57.250Z,99349.53
2023-03-02T15:27:26.536Z,99354.91
2023-03-02T15:29:56.811Z,99355.53
2023-03-02T15:32:26.014Z,99355.81
2023-03-02T15:34:54.913Z,99358.19
2023-03-02T15:37:24.584Z,99361.19
2023-03-02T15:39:57.671Z,99361.84
2023-03-02T15:42:27.463Z,99359.72
2023-03-02T15:44:56.279Z,99361.78
2023-03-02T15:47:25.830Z,99358.78
2023-03-02T15:49:57.969Z,99354.69
2023-03-02T15:52:26.805Z,99361.69
2023-03-02T15:54:55.474Z,99366.78
2023-03-02T15:57:24.387Z,99367.38
2023-03-02T15:59:53.127Z,99371.88
2023-03-02T16:02:22.437Z,99369.22
2023-03-02T16:04:51.217Z,99377.72
2023-03-02T16:07:20.172Z,99372.50
2023-03-02T16:09:49.097Z,99374.31
2023-03-02T16:12:21.296Z,99370.84
2023-03-02T16:14:50.444Z,99377.00
2023-03-02T16:17:20.013Z,99381.34
2023-03-02T16:19:49.299Z,99382.31
2023-03-02T16:22:18.063Z,99381.16
2023-03-02T16:24:49.760Z,99385.94
2023-03-02T16:27:19.080Z,99397.22
2023-03-02T16:29:47.865Z,99392.97
2023-03-02T16:32:17.073Z,99392.91
2023-03-02T16:34:45.842Z,99398.91
2023-03-02T16:37:15.494Z,99392.97
2023-03-02T16:39:44.443Z,99393.13
2023-03-02T16:42:13.375Z,99394.06
2023-03-02T16:44:42.227Z,99397.78
2023-03-02T16:47:11.689Z,99396.81
2023-03-02T16:49:40.330Z,99401.91
2023-03-02T16:52:09.464Z,99408.91
2023-03-02T16:54:38.344Z,99411.81
2023-03-02T16:57:07.450Z,99414.50
2023-03-02T16:59:36.111Z,99410.09
2023-03-02T17:02:05.286Z,99409.19
2023-03-02T17:04:35.831Z,99418.97
2023-03-02T17:07:06.448Z,99413.53
2023-03-02T17:09:38.465Z,99415.28
2023-03-02T17:12:08.107Z,99409.38
2023-03-02T17:14:36.812Z,99418.22
2023-03-02T17:17:05.747Z,99417.34
2023-03-02T17:19:35.051Z,99418.97
2023-03-02T17:22:04.776Z,99416.44
2023-03-02T17:24:34.120Z,99410.41
2023-03-02T17:27:04.235Z,99409.72
2023-03-02T17:29:34.465Z,99414.03
2023-03-02T17:32:03.353Z,99424.31
2023-03-02T17:34:32.508Z,99417.50
2023-03-02T17:37:01.704Z,99421.97
2023-03-02T17:39:31.011Z,99420.25
2023-03-02T17:41:59.780Z,99410.03
2023-03-02T17:44:28.782Z,99405.66
2023-03-02T17:46:57.624Z,99404.72
2023-03-02T17:49:26.741Z,99399.66
2023-03-02T17:51:55.413Z,99393.56
2023-03-02T17:54:24.532Z,99391.81
2023-03-02T17:56:53.262Z,99391.13
2023-03-02T17:59:22.241Z,99386.69
2023-03-02T18:01:51.532Z,99390.03
2023-03-02T18:04:20.512Z,99384.31
2023-03-02T18:06:49.480Z,99386.06
2023-03-02T18:09:18.633Z,99387.03
2023-03-02T18:11:48.077Z,99382.66
2023-03-02T18:14:20.953Z,99380.84
2023-03-02T18:16:50.022Z,99378.38
2023-03-02T18:19:18.684Z,99379.41
2023-03-02T18:21:47.772Z,99379.28
2023-03-02T18:24:16.525Z,99375.91
2023-03-02T18:26:45.364Z,99379.34
2023-03-02T18:29:14.126Z,99375.78
2023-03-02T18:31:43.296Z,99374.91
2023-03-02T18:34:12.109Z,99378.31
2023-03-02T18:36:41.744Z,99381.94
2023-03-02T18:39:10.464Z,99379.47
2023-03-02T18:41:39.396Z,99381.09
2023-03-02T18:44:08.297Z,99375.03
2023-03-02T18:46:37.513Z,99387.13
2023-03-02T18:49:06.237Z,99383.84
2023-03-02T18:51:35.376Z,99375.97
2023-03-02T18:54:04.069Z,99377.84
2023-03-02T18:56:33.044Z,99377.91
2023-03-02T18:59:01.940Z,99365.03
2023-03-02T19:01:32.965Z,99365.91
2023-03-02T19:04:03.209Z,99366.88
2023-03-02T19:06:33.093Z,99361.63
2023-03-02T19:09:02.219Z,99359.88
2023-03-02T19:11:31.114Z,99366.88
2023-03-02T19:13:59.976Z,99377.28
2023-03-02T19:16:28.879Z,99376.47
2023-03-02T19:18:58.255Z,99373.03
2023-03-02T19:21:27.013Z,99379.09
2023-03-02T19:23:56.102Z,99379.22
2023-03-02T19:26:24.993Z,99379.31
2023-03-02T19:28:54.237Z,99385.44
2023-03-02T19:31:25.206Z,99384.59
2023-03-02T19:33:54.865Z,99389.66
2023-03-02T19:36:23.673Z,99388.16
2023-03-02T19:38:52.834Z,99392.34
2023-03-02T19:41:22.391Z,99388.13
2023-03-02T19:43:51.680Z,99387.38
2023-03-02T19:46:20.762Z,99392.63
2023-03-02T19:48:49.781Z,99394.34
2023-03-02T19:51:18.576Z,99398.78
2023-03-02T19:53:48.028Z,99395.50
2023-03-02T19:56:17.501Z,99401.47
2023-03-02T19:58:50.932Z,99391.25
2023-03-02T20:01:25.939Z,99392.16
2023-03-02T20:03:57.232Z,99388.59
2023-03-02T20:06:31.408Z,99379.94
2023-03-02T20:09:06.933Z,99376.34
2023-03-02T20:11:36.080Z,99375.94
2023-03-02T20:14:04.850Z,99381.13
2023-03-02T20:16:36.112Z,99375.88
2023-03-02T20:19:07.088Z,99380.38
2023-03-02T20:21:36.977Z,99372.75
2023-03-02T20:24:06.912Z,99369.16
2023-03-02T20:26:35.597Z,99371.88
2023-03-02T20:29:06.162Z,99370.06
2023-03-02T20:31:36.240Z,99372.69
2023-03-02T20:34:09.690Z,99375.81
2023-03-02T20:36:39.385Z,99376.13
2023-03-02T20:39:15.418Z,99371.66
2023-03-02T20:41:44.869Z,99366.81
2023-03-02T20:44:14.795Z,99357.34
2023-03-02T20:46:48.609Z,99363.19
2023-03-02T20:49:17.776Z,99355.66
2023-03-02T20:51:55.480Z,99355.53
2023-03-02T20:54:27.806Z,99363.50
2023-03-02T20:56:57.427Z,99357.66
2023-03-02T20:59:26.972Z,99356.84
2023-03-02T21:01:56.107Z,99343.16
2023-03-02T21:04:25.102Z,99354.41
2023-03-02T21:06:54.072Z,99346.63
2023-03-02T21:09:22.930Z,99350.00
2023-03-02T21:11:52.541Z,99344.81
2023-03-02T21:14:21.501Z,99347.28
2023-03-02T21:16:50.619Z,99340.56
2023-03-02T21:19:23.039Z,99343.88
2023-03-02T21:21:51.706Z,99336.75
2023-03-02T21:24:21.669Z,99339.97
2023-03-02T21:26:53.677Z,99342.38
2023-03-02T21:29:25.213Z,99338.16
2023-03-02T21:31:54.914Z,99337.34
2023-03-02T21:34:23.914Z,99347.75
2023-03-02T21:36:56.026Z,99343.53
2023-03-02T21:39:25.246Z,99341.78
2023-03-02T21:41:54.997Z,99347.88
2023-03-02T21:44:24.685Z,99346.13
2023-03-02T21:46:53.465Z,99344.44
2023-03-02T21:49:24.042Z,99345.28
2023-03-02T21:51:53.150Z,99340.16
2023-03-02T21:54:21.847Z,99339.34
2023-03-02T21:56:51.182Z,99347.97
2023-03-02T21:59:20.133Z,99345.34
2023-03-02T22:01:49.262Z,99334.25
2023-03-02T22:04:18.090Z,99327.25
2023-03-02T22:06:47.397Z,99325.59
2023-03-02T22:09:16.191Z,99329.16
2023-03-02T22:11:45.746Z,99326.69
2023-03-02T22:14:18.995Z,99321.38
2023-03-02T22:16:48.956Z,99319.69
2023-03-02T22:19:28.000Z,99327.22
2023-03-02T22:22:01.458Z,99325.00
2023-03-02T22:24:32.591Z,99331.84
2023-03-02T22:27:08.026Z,99324.88
2023-03-02T22:29:37.172Z,99330.38
2023-03-02T22:32:38.080Z,99317.75
2023-03-02T22:35:24.281Z,99304.97
2023-03-02T22:38:01.168Z,99305.75
2023-03-02T22:40:35.780Z,99296.41
2023-03-02T22:43:30.730Z,99296.13
2023-03-02T22:46:22.660Z,99292.72
2023-03-02T22:48:53.264Z,99295.50
2023-03-02T22:51:25.491Z,99297.16
2023-03-02T22:53:57.408Z,99292.91
2023-03-02T22:56:35.111Z,99297.19
2023-03-02T22:59:15.376Z,99290.16
2023-03-02T23:01:46.287Z,99292.03
2023-03-02T23:04:21.458Z,99295.34
2023-03-02T23:07:03.636Z,99293.72
2023-03-02T23:09:36.725Z,99302.25
2023-03-02T23:12:28.273Z,99309.97
2023-03-02T23:14:59.179Z,99310.09
2023-03-02T23:17:37.203Z,99307.50
2023-03-02T23:20:09.509Z,99316.41
2023-03-02T23:22:40.005Z,99312.09
2023-03-02T23:25:10.034Z,99312.78
2023-03-02T23:27:38.726Z,99314.63
2023-03-02T23:30:08.637Z,99316.31
2023-03-02T23:32:37.412Z,99316.34
2023-03-02T23:35:06.796Z,99323.34
2023-03-02T23:37:35.541Z,99323.47
2023-03-02T23:40:04.966Z,99324.38
2023-03-02T23:42:33.739Z,99321.78
2023-03-02T23:45:02.832Z,99337.50
2023-03-02T23:47:31.634Z,99331.38
2023-03-02T23:50:00.511Z,99341.78
2023-03-02T23:52:29.361Z,99334.03
2023-03-02T23:54:58.524Z,99344.41
2023-03-02T23:57:27.862Z,99344.41
2023-03-02T23:59:57.006Z,99349.53
